sensor_id;sensor_type;location;lat;lon;timestamp;temperature;humidity
16503;DHT22;53067;48.114;11.694;2023-05-07T00:00:37;14.20;90.20
16503;DHT22;53067;48.114;11.694;2023-05-07T00:03:05;14.20;90.20
16503;DHT22;53067;48.114;11.694;2023-05-07T00:05:33;14.10;90.20
16503;DHT22;53067;48.114;11.694;2023-05-07T00:08:00;14.10;89.70
16503;DHT22;53067;48.114;11.694;2023-05-07T00:10:28;14.10;90.10
16503;DHT22;53067;48.114;11.694;2023-05-07T00:12:55;14.10;90.20
16503;DHT22;53067;48.114;11.694;2023-05-07T00:15:23;14.10;90.20
16503;DHT22;53067;48.114;11.694;2023-05-07T00:17:50;14.10;90.30
16503;DHT22;53067;48.114;11.694;2023-05-07T00:20:18;14.10;90.20
16503;DHT22;53067;48.114;11.694;2023-05-07T00:22:45;14.10;90.30
16503;DHT22;53067;48.114;11.694;2023-05-07T00:25:12;14.10;90.30
16503;DHT22;53067;48.114;11.694;2023-05-07T00:27:40;14.10;90.30
16503;DHT22;53067;48.114;11.694;2023-05-07T00:30:09;14.10;90.30
16503;DHT22;53067;48.114;11.694;2023-05-07T00:32:36;14.00;90.20
16503;DHT22;53067;48.114;11.694;2023-05-07T00:35:05;14.00;90.30
16503;DHT22;53067;48.114;11.694;2023-05-07T00:37:33;14.10;90.30
16503;DHT22;53067;48.114;11.694;2023-05-07T00:40:01;14.10;90.70
16503;DHT22;53067;48.114;11.694;2023-05-07T00:42:30;14.10;90.30
16503;DHT22;53067;48.114;11.694;2023-05-07T00:44:58;14.00;90.20
16503;DHT22;53067;48.114;11.694;2023-05-07T00:47:26;14.10;90.30
16503;DHT22;53067;48.114;11.694;2023-05-07T00:49:54;14.10;90.30
16503;DHT22;53067;48.114;11.694;2023-05-07T00:52:23;14.10;90.40
16503;DHT22;53067;48.114;11.694;2023-05-07T00:54:52;14.10;90.40
16503;DHT22;53067;48.114;11.694;2023-05-07T00:57:21;14.10;90.80
16503;DHT22;53067;48.114;11.694;2023-05-07T00:59:52;14.00;90.40
16503;DHT22;53067;48.114;11.694;2023-05-07T01:02:19;14.00;90.40
16503;DHT22;53067;48.114;11.694;2023-05-07T01:04:47;14.00;90.40
16503;DHT22;53067;48.114;11.694;2023-05-07T01:07:14;14.00;90.40
16503;DHT22;53067;48.114;11.694;2023-05-07T01:09:42;13.90;90.40
16503;DHT22;53067;48.114;11.694;2023-05-07T01:12:10;13.90;90.40
16503;DHT22;53067;48.114;11.694;2023-05-07T01:14:38;13.80;90.60
16503;DHT22;53067;48.114;11.694;2023-05-07T01:17:06;13.80;90.60
16503;DHT22;53067;48.114;11.694;2023-05-07T01:19:34;13.80;90.50
16503;DHT22;53067;48.114;11.694;2023-05-07T01:22:07;13.80;90.50
16503;DHT22;53067;48.114;11.694;2023-05-07T01:24:33;13.80;90.50
16503;DHT22;53067;48.114;11.694;2023-05-07T01:27:01;13.80;90.50
16503;DHT22;53067;48.114;11.694;2023-05-07T01:29:29;13.80;90.40
16503;DHT22;53067;48.114;11.694;2023-05-07T01:32:00;13.80;90.50
16503;DHT22;53067;48.114;11.694;2023-05-07T01:34:30;13.80;90.50
16503;DHT22;53067;48.114;11.694;2023-05-07T01:36:59;13.80;90.50
16503;DHT22;53067;48.114;11.694;2023-05-07T01:39:29;13.80;90.60
16503;DHT22;53067;48.114;11.694;2023-05-07T01:41:57;13.80;90.60
16503;DHT22;53067;48.114;11.694;2023-05-07T01:44:26;13.80;90.70
16503;DHT22;53067;48.114;11.694;2023-05-07T01:46:54;13.80;90.70
16503;DHT22;53067;48.114;11.694;2023-05-07T01:49:23;13.70;90.70
16503;DHT22;53067;48.114;11.694;2023-05-07T01:51:51;13.80;90.80
16503;DHT22;53067;48.114;11.694;2023-05-07T01:54:18;13.70;90.70
16503;DHT22;53067;48.114;11.694;2023-05-07T01:56:47;13.70;90.80
16503;DHT22;53067;48.114;11.694;2023-05-07T01:59:15;13.60;91.20
16503;DHT22;53067;48.114;11.694;2023-05-07T02:01:42;13.60;90.90
16503;DHT22;53067;48.114;11.694;2023-05-07T02:04:10;13.70;90.90
16503;DHT22;53067;48.114;11.694;2023-05-07T02:06:37;13.70;90.80
16503;DHT22;53067;48.114;11.694;2023-05-07T02:09:05;13.70;90.90
16503;DHT22;53067;48.114;11.694;2023-05-07T02:11:33;13.60;90.90
16503;DHT22;53067;48.114;11.694;2023-05-07T02:14:00;13.60;90.80
16503;DHT22;53067;48.114;11.694;2023-05-07T02:16:28;13.50;90.80
16503;DHT22;53067;48.114;11.694;2023-05-07T02:18:55;13.50;90.70
16503;DHT22;53067;48.114;11.694;2023-05-07T02:21:25;13.50;90.80
16503;DHT22;53067;48.114;11.694;2023-05-07T02:23:52;13.50;90.80
16503;DHT22;53067;48.114;11.694;2023-05-07T02:26:20;13.50;90.80
16503;DHT22;53067;48.114;11.694;2023-05-07T02:28:48;13.50;90.70
16503;DHT22;53067;48.114;11.694;2023-05-07T02:31:15;13.40;90.70
16503;DHT22;53067;48.114;11.694;2023-05-07T02:33:43;13.40;90.70
16503;DHT22;53067;48.114;11.694;2023-05-07T02:36:12;13.40;90.70
16503;DHT22;53067;48.114;11.694;2023-05-07T02:38:40;13.40;90.80
16503;DHT22;53067;48.114;11.694;2023-05-07T02:41:07;13.40;90.80
16503;DHT22;53067;48.114;11.694;2023-05-07T02:43:35;13.40;90.80
16503;DHT22;53067;48.114;11.694;2023-05-07T02:46:03;13.30;90.80
16503;DHT22;53067;48.114;11.694;2023-05-07T02:48:31;13.30;90.80
16503;DHT22;53067;48.114;11.694;2023-05-07T02:50:59;13.30;90.80
16503;DHT22;53067;48.114;11.694;2023-05-07T02:53:29;13.30;90.80
16503;DHT22;53067;48.114;11.694;2023-05-07T02:55:58;13.30;90.90
16503;DHT22;53067;48.114;11.694;2023-05-07T02:58:26;13.30;90.90
16503;DHT22;53067;48.114;11.694;2023-05-07T03:00:53;13.30;91.00
16503;DHT22;53067;48.114;11.694;2023-05-07T03:03:24;13.30;91.10
16503;DHT22;53067;48.114;11.694;2023-05-07T03:05:51;13.20;91.50
16503;DHT22;53067;48.114;11.694;2023-05-07T03:08:19;13.20;91.20
16503;DHT22;53067;48.114;11.694;2023-05-07T03:10:47;13.20;91.20
16503;DHT22;53067;48.114;11.694;2023-05-07T03:13:14;13.20;91.20
16503;DHT22;53067;48.114;11.694;2023-05-07T03:15:42;13.20;91.30
16503;DHT22;53067;48.114;11.694;2023-05-07T03:18:09;13.20;91.30
16503;DHT22;53067;48.114;11.694;2023-05-07T03:20:37;13.20;91.40
16503;DHT22;53067;48.114;11.694;2023-05-07T03:23:04;13.20;91.40
16503;DHT22;53067;48.114;11.694;2023-05-07T03:25:32;13.20;91.30
16503;DHT22;53067;48.114;11.694;2023-05-07T03:28:00;13.20;91.30
16503;DHT22;53067;48.114;11.694;2023-05-07T03:30:27;13.20;91.30
16503;DHT22;53067;48.114;11.694;2023-05-07T03:32:55;13.20;91.30
16503;DHT22;53067;48.114;11.694;2023-05-07T03:35:22;13.20;91.30
16503;DHT22;53067;48.114;11.694;2023-05-07T03:37:50;13.20;91.20
16503;DHT22;53067;48.114;11.694;2023-05-07T03:40:18;13.20;91.20
16503;DHT22;53067;48.114;11.694;2023-05-07T03:42:45;13.20;91.30
16503;DHT22;53067;48.114;11.694;2023-05-07T03:45:13;13.10;91.30
16503;DHT22;53067;48.114;11.694;2023-05-07T03:47:40;13.10;91.30
16503;DHT22;53067;48.114;11.694;2023-05-07T03:52:56;13.10;91.20
16503;DHT22;53067;48.114;11.694;2023-05-07T03:55:23;13.10;91.10
16503;DHT22;53067;48.114;11.694;2023-05-07T03:57:53;13.10;91.10
16503;DHT22;53067;48.114;11.694;2023-05-07T04:00:20;13.10;91.10
16503;DHT22;53067;48.114;11.694;2023-05-07T04:02:48;13.10;91.10
16503;DHT22;53067;48.114;11.694;2023-05-07T04:05:35;13.00;91.10
16503;DHT22;53067;48.114;11.694;2023-05-07T04:08:03;13.00;91.10
16503;DHT22;53067;48.114;11.694;2023-05-07T04:10:30;13.10;91.50
16503;DHT22;53067;48.114;11.694;2023-05-07T04:12:58;13.10;91.10
16503;DHT22;53067;48.114;11.694;2023-05-07T04:15:25;13.10;91.30
16503;DHT22;53067;48.114;11.694;2023-05-07T04:17:53;13.10;90.90
16503;DHT22;53067;48.114;11.694;2023-05-07T04:20:20;13.20;90.70
16503;DHT22;53067;48.114;11.694;2023-05-07T04:22:48;13.20;90.70
16503;DHT22;53067;48.114;11.694;2023-05-07T04:25:16;13.20;90.70
16503;DHT22;53067;48.114;11.694;2023-05-07T04:27:43;13.20;90.70
16503;DHT22;53067;48.114;11.694;2023-05-07T04:30:12;13.20;90.70
16503;DHT22;53067;48.114;11.694;2023-05-07T04:32:40;13.30;90.70
16503;DHT22;53067;48.114;11.694;2023-05-07T04:35:07;13.20;90.70
16503;DHT22;53067;48.114;11.694;2023-05-07T04:37:35;13.30;90.50
16503;DHT22;53067;48.114;11.694;2023-05-07T04:40:03;13.30;90.50
16503;DHT22;53067;48.114;11.694;2023-05-07T04:42:54;13.40;90.40
16503;DHT22;53067;48.114;11.694;2023-05-07T04:45:21;13.40;90.30
16503;DHT22;53067;48.114;11.694;2023-05-07T04:47:49;13.40;90.40
16503;DHT22;53067;48.114;11.694;2023-05-07T04:50:17;13.40;90.30
16503;DHT22;53067;48.114;11.694;2023-05-07T04:52:45;13.40;90.40
16503;DHT22;53067;48.114;11.694;2023-05-07T04:55:13;13.40;90.50
16503;DHT22;53067;48.114;11.694;2023-05-07T04:57:41;13.40;90.60
16503;DHT22;53067;48.114;11.694;2023-05-07T05:00:09;13.30;90.70
16503;DHT22;53067;48.114;11.694;2023-05-07T05:02:36;13.30;90.80
16503;DHT22;53067;48.114;11.694;2023-05-07T05:05:04;13.30;90.80
16503;DHT22;53067;48.114;11.694;2023-05-07T05:07:32;13.30;91.30
16503;DHT22;53067;48.114;11.694;2023-05-07T05:10:00;13.30;91.00
16503;DHT22;53067;48.114;11.694;2023-05-07T05:12:27;13.30;91.10
16503;DHT22;53067;48.114;11.694;2023-05-07T05:14:55;13.30;91.10
16503;DHT22;53067;48.114;11.694;2023-05-07T05:17:23;13.40;91.10
16503;DHT22;53067;48.114;11.694;2023-05-07T05:19:50;13.40;91.10
16503;DHT22;53067;48.114;11.694;2023-05-07T05:22:18;13.50;91.00
16503;DHT22;53067;48.114;11.694;2023-05-07T05:24:45;13.50;91.00
16503;DHT22;53067;48.114;11.694;2023-05-07T05:27:13;13.50;91.10
16503;DHT22;53067;48.114;11.694;2023-05-07T05:29:40;13.50;91.20
16503;DHT22;53067;48.114;11.694;2023-05-07T05:32:08;13.50;91.10
16503;DHT22;53067;48.114;11.694;2023-05-07T05:34:36;13.60;91.10
16503;DHT22;53067;48.114;11.694;2023-05-07T05:37:03;13.70;91.10
16503;DHT22;53067;48.114;11.694;2023-05-07T05:39:31;13.80;91.10
16503;DHT22;53067;48.114;11.694;2023-05-07T05:41:59;13.80;91.10
16503;DHT22;53067;48.114;11.694;2023-05-07T05:44:26;13.90;91.10
16503;DHT22;53067;48.114;11.694;2023-05-07T05:46:54;14.00;91.40
16503;DHT22;53067;48.114;11.694;2023-05-07T05:49:21;14.00;91.10
16503;DHT22;53067;48.114;11.694;2023-05-07T05:51:49;14.10;91.00
16503;DHT22;53067;48.114;11.694;2023-05-07T05:54:17;14.20;91.00
16503;DHT22;53067;48.114;11.694;2023-05-07T05:56:44;14.20;91.00
16503;DHT22;53067;48.114;11.694;2023-05-07T05:59:12;14.30;91.10
16503;DHT22;53067;48.114;11.694;2023-05-07T06:01:39;14.30;91.10
16503;DHT22;53067;48.114;11.694;2023-05-07T06:04:07;14.40;91.20
16503;DHT22;53067;48.114;11.694;2023-05-07T06:06:35;14.50;91.10
16503;DHT22;53067;48.114;11.694;2023-05-07T06:09:02;14.60;91.00
16503;DHT22;53067;48.114;11.694;2023-05-07T06:11:31;14.70;91.00
16503;DHT22;53067;48.114;11.694;2023-05-07T06:13:59;14.80;91.00
16503;DHT22;53067;48.114;11.694;2023-05-07T06:16:26;14.80;91.00
16503;DHT22;53067;48.114;11.694;2023-05-07T06:18:54;14.90;90.90
16503;DHT22;53067;48.114;11.694;2023-05-07T06:21:21;15.00;90.90
16503;DHT22;53067;48.114;11.694;2023-05-07T06:23:49;15.00;90.70
16503;DHT22;53067;48.114;11.694;2023-05-07T06:26:18;15.10;90.60
16503;DHT22;53067;48.114;11.694;2023-05-07T06:28:46;15.20;90.50
16503;DHT22;53067;48.114;11.694;2023-05-07T06:31:15;15.30;90.40
16503;DHT22;53067;48.114;11.694;2023-05-07T06:33:44;15.40;90.30
16503;DHT22;53067;48.114;11.694;2023-05-07T06:36:12;15.50;90.30
16503;DHT22;53067;48.114;11.694;2023-05-07T06:38:40;15.60;90.40
16503;DHT22;53067;48.114;11.694;2023-05-07T06:41:07;15.70;90.20
16503;DHT22;53067;48.114;11.694;2023-05-07T06:43:35;15.80;90.20
16503;DHT22;53067;48.114;11.694;2023-05-07T06:46:03;15.90;90.00
16503;DHT22;53067;48.114;11.694;2023-05-07T06:48:31;16.00;90.00
16503;DHT22;53067;48.114;11.694;2023-05-07T06:50:59;16.10;89.90
16503;DHT22;53067;48.114;11.694;2023-05-07T06:53:26;16.20;89.20
16503;DHT22;53067;48.114;11.694;2023-05-07T06:55:55;16.20;88.60
16503;DHT22;53067;48.114;11.694;2023-05-07T06:58:23;16.30;88.20
16503;DHT22;53067;48.114;11.694;2023-05-07T07:00:50;16.40;88.10
16503;DHT22;53067;48.114;11.694;2023-05-07T07:03:18;16.50;87.90
16503;DHT22;53067;48.114;11.694;2023-05-07T07:05:45;16.60;87.90
16503;DHT22;53067;48.114;11.694;2023-05-07T07:08:13;16.70;88.00
16503;DHT22;53067;48.114;11.694;2023-05-07T07:10:41;16.80;87.50
16503;DHT22;53067;48.114;11.694;2023-05-07T07:13:08;16.90;87.20
16503;DHT22;53067;48.114;11.694;2023-05-07T07:15:37;17.00;86.50
16503;DHT22;53067;48.114;11.694;2023-05-07T07:18:05;17.00;86.30
16503;DHT22;53067;48.114;11.694;2023-05-07T07:20:39;17.10;86.60
16503;DHT22;53067;48.114;11.694;2023-05-07T07:23:07;17.20;86.30
16503;DHT22;53067;48.114;11.694;2023-05-07T07:25:34;17.30;85.90
16503;DHT22;53067;48.114;11.694;2023-05-07T07:28:02;17.50;85.20
16503;DHT22;53067;48.114;11.694;2023-05-07T07:30:30;17.50;84.30
16503;DHT22;53067;48.114;11.694;2023-05-07T07:32:57;17.70;82.90
16503;DHT22;53067;48.114;11.694;2023-05-07T07:35:29;17.90;82.10
16503;DHT22;53067;48.114;11.694;2023-05-07T07:37:57;18.00;81.70
16503;DHT22;53067;48.114;11.694;2023-05-07T07:40:25;18.10;81.70
16503;DHT22;53067;48.114;11.694;2023-05-07T07:42:53;18.20;80.80
16503;DHT22;53067;48.114;11.694;2023-05-07T07:45:21;18.30;81.20
16503;DHT22;53067;48.114;11.694;2023-05-07T07:47:48;18.40;80.00
16503;DHT22;53067;48.114;11.694;2023-05-07T07:50:16;18.40;79.30
16503;DHT22;53067;48.114;11.694;2023-05-07T07:52:44;18.60;78.70
16503;DHT22;53067;48.114;11.694;2023-05-07T07:55:12;18.70;78.20
16503;DHT22;53067;48.114;11.694;2023-05-07T07:57:40;18.80;77.10
16503;DHT22;53067;48.114;11.694;2023-05-07T08:00:08;18.90;76.60
16503;DHT22;53067;48.114;11.694;2023-05-07T08:02:37;18.90;76.50
16503;DHT22;53067;48.114;11.694;2023-05-07T08:05:05;19.00;77.80
16503;DHT22;53067;48.114;11.694;2023-05-07T08:07:33;19.20;77.90
16503;DHT22;53067;48.114;11.694;2023-05-07T08:10:00;19.30;77.90
16503;DHT22;53067;48.114;11.694;2023-05-07T08:12:28;19.40;76.60
16503;DHT22;53067;48.114;11.694;2023-05-07T08:14:56;19.40;76.50
16503;DHT22;53067;48.114;11.694;2023-05-07T08:17:24;19.60;80.40
16503;DHT22;53067;48.114;11.694;2023-05-07T08:22:19;19.70;76.40
16503;DHT22;53067;48.114;11.694;2023-05-07T08:24:47;19.80;77.10
16503;DHT22;53067;48.114;11.694;2023-05-07T08:27:14;19.90;76.10
16503;DHT22;53067;48.114;11.694;2023-05-07T08:29:42;20.00;74.90
16503;DHT22;53067;48.114;11.694;2023-05-07T08:32:11;20.10;75.30
16503;DHT22;53067;48.114;11.694;2023-05-07T08:34:38;20.20;74.90
16503;DHT22;53067;48.114;11.694;2023-05-07T08:37:06;20.20;75.00
16503;DHT22;53067;48.114;11.694;2023-05-07T08:39:33;20.30;73.60
16503;DHT22;53067;48.114;11.694;2023-05-07T08:42:02;20.40;72.30
16503;DHT22;53067;48.114;11.694;2023-05-07T08:44:35;20.40;71.70
16503;DHT22;53067;48.114;11.694;2023-05-07T08:47:06;20.50;70.70
16503;DHT22;53067;48.114;11.694;2023-05-07T08:49:35;20.60;70.60
16503;DHT22;53067;48.114;11.694;2023-05-07T08:52:02;20.70;69.40
16503;DHT22;53067;48.114;11.694;2023-05-07T08:54:31;20.80;69.20
16503;DHT22;53067;48.114;11.694;2023-05-07T08:56:59;20.90;68.80
16503;DHT22;53067;48.114;11.694;2023-05-07T08:59:27;20.90;68.60
16503;DHT22;53067;48.114;11.694;2023-05-07T09:01:54;21.00;68.20
16503;DHT22;53067;48.114;11.694;2023-05-07T09:04:22;21.10;67.90
16503;DHT22;53067;48.114;11.694;2023-05-07T09:06:49;21.20;65.70
16503;DHT22;53067;48.114;11.694;2023-05-07T09:09:18;21.20;68.10
16503;DHT22;53067;48.114;11.694;2023-05-07T09:11:45;21.30;68.60
16503;DHT22;53067;48.114;11.694;2023-05-07T09:14:13;21.40;67.30
16503;DHT22;53067;48.114;11.694;2023-05-07T09:16:40;21.50;67.30
16503;DHT22;53067;48.114;11.694;2023-05-07T09:19:08;21.60;67.10
16503;DHT22;53067;48.114;11.694;2023-05-07T09:21:36;21.70;66.10
16503;DHT22;53067;48.114;11.694;2023-05-07T09:24:03;21.80;64.80
16503;DHT22;53067;48.114;11.694;2023-05-07T09:26:50;21.80;64.20
16503;DHT22;53067;48.114;11.694;2023-05-07T09:29:18;21.90;63.70
16503;DHT22;53067;48.114;11.694;2023-05-07T09:31:46;21.90;63.60
16503;DHT22;53067;48.114;11.694;2023-05-07T09:34:13;22.10;63.90
16503;DHT22;53067;48.114;11.694;2023-05-07T09:36:41;22.20;63.90
16503;DHT22;53067;48.114;11.694;2023-05-07T09:39:08;22.30;63.20
16503;DHT22;53067;48.114;11.694;2023-05-07T09:41:43;22.30;64.30
16503;DHT22;53067;48.114;11.694;2023-05-07T09:44:12;22.50;64.60
16503;DHT22;53067;48.114;11.694;2023-05-07T09:46:46;22.60;66.60
16503;DHT22;53067;48.114;11.694;2023-05-07T09:49:20;22.50;63.90
16503;DHT22;53067;48.114;11.694;2023-05-07T09:52:05;22.60;63.50
16503;DHT22;53067;48.114;11.694;2023-05-07T09:54:35;22.70;63.00
16503;DHT22;53067;48.114;11.694;2023-05-07T09:57:04;22.80;61.00
16503;DHT22;53067;48.114;11.694;2023-05-07T09:59:33;22.90;60.10
16503;DHT22;53067;48.114;11.694;2023-05-07T10:02:01;22.90;61.10
16503;DHT22;53067;48.114;11.694;2023-05-07T10:04:32;23.00;60.80
16503;DHT22;53067;48.114;11.694;2023-05-07T10:07:00;23.10;60.30
16503;DHT22;53067;48.114;11.694;2023-05-07T10:09:29;23.20;59.20
16503;DHT22;53067;48.114;11.694;2023-05-07T10:11:57;23.20;58.90
16503;DHT22;53067;48.114;11.694;2023-05-07T10:14:27;23.30;59.10
16503;DHT22;53067;48.114;11.694;2023-05-07T10:16:56;23.40;64.30
16503;DHT22;53067;48.114;11.694;2023-05-07T10:19:24;23.40;59.00
16503;DHT22;53067;48.114;11.694;2023-05-07T10:21:54;23.60;57.80
16503;DHT22;53067;48.114;11.694;2023-05-07T10:24:28;23.60;57.50
16503;DHT22;53067;48.114;11.694;2023-05-07T10:30:15;23.60;56.00
16503;DHT22;53067;48.114;11.694;2023-05-07T10:32:47;23.60;54.50
16503;DHT22;53067;48.114;11.694;2023-05-07T10:35:26;23.70;54.30
16503;DHT22;53067;48.114;11.694;2023-05-07T10:37:54;23.70;54.60
16503;DHT22;53067;48.114;11.694;2023-05-07T10:40:22;23.70;55.20
16503;DHT22;53067;48.114;11.694;2023-05-07T10:43:00;23.70;55.10
16503;DHT22;53067;48.114;11.694;2023-05-07T10:45:28;23.70;55.30
16503;DHT22;53067;48.114;11.694;2023-05-07T10:50:36;23.90;53.60
16503;DHT22;53067;48.114;11.694;2023-05-07T10:53:24;23.90;53.90
16503;DHT22;53067;48.114;11.694;2023-05-07T10:58:46;23.80;51.00
16503;DHT22;53067;48.114;11.694;2023-05-07T11:01:14;23.90;52.00
16503;DHT22;53067;48.114;11.694;2023-05-07T11:04:14;23.90;52.60
16503;DHT22;53067;48.114;11.694;2023-05-07T11:06:42;24.00;53.20
16503;DHT22;53067;48.114;11.694;2023-05-07T11:09:09;24.00;53.90
16503;DHT22;53067;48.114;11.694;2023-05-07T11:11:47;24.00;53.80
16503;DHT22;53067;48.114;11.694;2023-05-07T11:17:13;24.20;53.10
16503;DHT22;53067;48.114;11.694;2023-05-07T11:19:55;24.30;54.30
16503;DHT22;53067;48.114;11.694;2023-05-07T11:25:04;24.40;53.90
16503;DHT22;53067;48.114;11.694;2023-05-07T11:27:33;24.40;53.50
16503;DHT22;53067;48.114;11.694;2023-05-07T11:30:01;24.30;54.20
16503;DHT22;53067;48.114;11.694;2023-05-07T11:32:31;24.30;53.70
16503;DHT22;53067;48.114;11.694;2023-05-07T11:35:00;24.40;53.20
16503;DHT22;53067;48.114;11.694;2023-05-07T11:37:28;24.50;52.80
16503;DHT22;53067;48.114;11.694;2023-05-07T11:40:08;24.40;53.40
16503;DHT22;53067;48.114;11.694;2023-05-07T11:42:38;24.70;54.00
16503;DHT22;53067;48.114;11.694;2023-05-07T11:45:07;24.70;53.40
16503;DHT22;53067;48.114;11.694;2023-05-07T11:47:35;24.80;53.80
16503;DHT22;53067;48.114;11.694;2023-05-07T11:50:04;24.90;53.20
16503;DHT22;53067;48.114;11.694;2023-05-07T11:52:33;25.00;53.60
16503;DHT22;53067;48.114;11.694;2023-05-07T11:55:02;25.10;53.20
16503;DHT22;53067;48.114;11.694;2023-05-07T11:57:32;25.10;53.00
16503;DHT22;53067;48.114;11.694;2023-05-07T12:00:02;25.30;54.00
16503;DHT22;53067;48.114;11.694;2023-05-07T12:02:31;25.90;77.80
16503;DHT22;53067;48.114;11.694;2023-05-07T12:05:00;25.40;52.20
16503;DHT22;53067;48.114;11.694;2023-05-07T12:07:29;25.30;52.30
16503;DHT22;53067;48.114;11.694;2023-05-07T12:09:58;25.30;54.80
16503;DHT22;53067;48.114;11.694;2023-05-07T12:12:25;25.30;53.80
16503;DHT22;53067;48.114;11.694;2023-05-07T12:14:53;25.40;53.10
16503;DHT22;53067;48.114;11.694;2023-05-07T12:17:21;25.40;51.80
16503;DHT22;53067;48.114;11.694;2023-05-07T12:19:49;25.50;52.20
16503;DHT22;53067;48.114;11.694;2023-05-07T12:22:17;25.60;51.80
16503;DHT22;53067;48.114;11.694;2023-05-07T12:24:58;25.70;50.20
16503;DHT22;53067;48.114;11.694;2023-05-07T12:27:26;25.70;50.80
16503;DHT22;53067;48.114;11.694;2023-05-07T12:29:53;25.80;50.40
16503;DHT22;53067;48.114;11.694;2023-05-07T12:32:27;25.90;50.50
16503;DHT22;53067;48.114;11.694;2023-05-07T12:34:54;26.00;50.40
16503;DHT22;53067;48.114;11.694;2023-05-07T12:37:25;26.00;49.70
16503;DHT22;53067;48.114;11.694;2023-05-07T12:40:07;26.00;49.10
16503;DHT22;53067;48.114;11.694;2023-05-07T12:42:39;25.90;48.80
16503;DHT22;53067;48.114;11.694;2023-05-07T12:45:26;25.90;48.70
16503;DHT22;53067;48.114;11.694;2023-05-07T12:47:54;25.90;48.60
16503;DHT22;53067;48.114;11.694;2023-05-07T12:50:22;25.90;49.40
16503;DHT22;53067;48.114;11.694;2023-05-07T12:52:50;25.80;49.10
16503;DHT22;53067;48.114;11.694;2023-05-07T12:55:18;25.80;48.70
16503;DHT22;53067;48.114;11.694;2023-05-07T12:57:49;25.90;49.20
16503;DHT22;53067;48.114;11.694;2023-05-07T13:00:38;25.90;48.30
16503;DHT22;53067;48.114;11.694;2023-05-07T13:03:06;25.90;48.30
16503;DHT22;53067;48.114;11.694;2023-05-07T13:05:33;25.80;48.70
16503;DHT22;53067;48.114;11.694;2023-05-07T13:08:01;25.80;49.60
16503;DHT22;53067;48.114;11.694;2023-05-07T13:10:29;25.80;49.30
16503;DHT22;53067;48.114;11.694;2023-05-07T13:12:56;25.80;50.00
16503;DHT22;53067;48.114;11.694;2023-05-07T13:15:24;25.70;49.60
16503;DHT22;53067;48.114;11.694;2023-05-07T13:17:53;25.60;49.20
16503;DHT22;53067;48.114;11.694;2023-05-07T13:20:21;25.60;49.80
16503;DHT22;53067;48.114;11.694;2023-05-07T13:22:49;25.60;49.00
16503;DHT22;53067;48.114;11.694;2023-05-07T13:25:16;25.50;49.00
16503;DHT22;53067;48.114;11.694;2023-05-07T13:27:44;25.50;48.50
16503;DHT22;53067;48.114;11.694;2023-05-07T13:30:12;25.50;62.00
16503;DHT22;53067;48.114;11.694;2023-05-07T13:32:39;25.40;49.20
16503;DHT22;53067;48.114;11.694;2023-05-07T13:35:07;25.50;76.50
16503;DHT22;53067;48.114;11.694;2023-05-07T13:37:35;25.50;53.40
16503;DHT22;53067;48.114;11.694;2023-05-07T13:40:07;25.50;53.50
16503;DHT22;53067;48.114;11.694;2023-05-07T13:42:35;25.60;62.70
16503;DHT22;53067;48.114;11.694;2023-05-07T13:45:03;25.80;69.00
16503;DHT22;53067;48.114;11.694;2023-05-07T13:47:31;25.60;51.80
16503;DHT22;53067;48.114;11.694;2023-05-07T13:49:59;25.60;52.40
16503;DHT22;53067;48.114;11.694;2023-05-07T13:52:26;25.70;52.70
16503;DHT22;53067;48.114;11.694;2023-05-07T13:54:54;25.80;51.50
16503;DHT22;53067;48.114;11.694;2023-05-07T13:57:22;25.80;47.10
16503;DHT22;53067;48.114;11.694;2023-05-07T13:59:50;25.80;52.60
16503;DHT22;53067;48.114;11.694;2023-05-07T14:02:17;25.80;50.30
16503;DHT22;53067;48.114;11.694;2023-05-07T14:04:45;25.90;49.00
16503;DHT22;53067;48.114;11.694;2023-05-07T14:07:12;25.90;47.50
16503;DHT22;53067;48.114;11.694;2023-05-07T14:09:40;26.00;52.30
16503;DHT22;53067;48.114;11.694;2023-05-07T14:12:07;26.00;47.90
16503;DHT22;53067;48.114;11.694;2023-05-07T14:14:35;26.00;48.90
16503;DHT22;53067;48.114;11.694;2023-05-07T14:17:03;26.00;48.80
16503;DHT22;53067;48.114;11.694;2023-05-07T14:19:30;26.10;80.10
16503;DHT22;53067;48.114;11.694;2023-05-07T14:21:58;26.00;45.70
16503;DHT22;53067;48.114;11.694;2023-05-07T14:24:25;26.10;49.70
16503;DHT22;53067;48.114;11.694;2023-05-07T14:26:53;26.10;46.70
16503;DHT22;53067;48.114;11.694;2023-05-07T14:29:20;26.00;47.00
16503;DHT22;53067;48.114;11.694;2023-05-07T14:31:49;25.80;46.90
16503;DHT22;53067;48.114;11.694;2023-05-07T14:34:16;25.90;47.10
16503;DHT22;53067;48.114;11.694;2023-05-07T14:36:44;25.80;48.20
16503;DHT22;53067;48.114;11.694;2023-05-07T14:39:11;25.70;47.90
16503;DHT22;53067;48.114;11.694;2023-05-07T14:41:39;25.60;48.30
16503;DHT22;53067;48.114;11.694;2023-05-07T14:44:06;25.50;48.50
16503;DHT22;53067;48.114;11.694;2023-05-07T14:46:34;25.40;50.10
16503;DHT22;53067;48.114;11.694;2023-05-07T14:49:02;25.20;48.50
16503;DHT22;53067;48.114;11.694;2023-05-07T14:53:59;24.90;46.60
16503;DHT22;53067;48.114;11.694;2023-05-07T14:56:27;24.80;47.10
16503;DHT22;53067;48.114;11.694;2023-05-07T14:58:55;24.70;47.50
16503;DHT22;53067;48.114;11.694;2023-05-07T15:01:22;24.60;47.90
16503;DHT22;53067;48.114;11.694;2023-05-07T15:03:50;24.40;48.80
16503;DHT22;53067;48.114;11.694;2023-05-07T15:06:17;24.40;48.50
16503;DHT22;53067;48.114;11.694;2023-05-07T15:08:45;24.40;49.40
16503;DHT22;53067;48.114;11.694;2023-05-07T15:11:13;24.30;48.50
16503;DHT22;53067;48.114;11.694;2023-05-07T15:13:42;24.20;49.30
16503;DHT22;53067;48.114;11.694;2023-05-07T15:16:09;24.10;48.90
16503;DHT22;53067;48.114;11.694;2023-05-07T15:18:37;24.00;49.50
16503;DHT22;53067;48.114;11.694;2023-05-07T15:21:04;24.00;49.90
16503;DHT22;53067;48.114;11.694;2023-05-07T15:23:32;23.90;50.80
16503;DHT22;53067;48.114;11.694;2023-05-07T15:26:00;23.80;50.90
16503;DHT22;53067;48.114;11.694;2023-05-07T15:28:28;23.80;50.70
16503;DHT22;53067;48.114;11.694;2023-05-07T15:30:56;23.80;50.80
16503;DHT22;53067;48.114;11.694;2023-05-07T15:33:24;23.80;51.20
16503;DHT22;53067;48.114;11.694;2023-05-07T15:35:51;23.80;51.40
16503;DHT22;53067;48.114;11.694;2023-05-07T15:38:19;23.80;51.80
16503;DHT22;53067;48.114;11.694;2023-05-07T15:40:46;23.80;51.80
16503;DHT22;53067;48.114;11.694;2023-05-07T15:43:14;23.70;52.00
16503;DHT22;53067;48.114;11.694;2023-05-07T15:45:43;23.70;51.60